sensor_id;sensor_type;location;lat;lon;timestamp;P1;durP1;ratioP1;P2;durP2;ratioP2
49514;SDS011;35415;47.870;16.058;2023-02-10T00:01:13;3.90;;;2.22;;
49514;SDS011;35415;47.870;16.058;2023-02-10T00:03:44;7.70;;;2.83;;
49514;SDS011;35415;47.870;16.058;2023-02-10T00:06:12;7.28;;;3.20;;
49514;SDS011;35415;47.870;16.058;2023-02-10T00:08:40;2.17;;;1.70;;
49514;SDS011;35415;47.870;16.058;2023-02-10T00:11:09;5.70;;;2.65;;
49514;SDS011;35415;47.870;16.058;2023-02-10T00:13:38;5.10;;;2.50;;
49514;SDS011;35415;47.870;16.058;2023-02-10T00:16:06;5.40;;;2.60;;
49514;SDS011;35415;47.870;16.058;2023-02-10T00:18:34;6.57;;;3.47;;
49514;SDS011;35415;47.870;16.058;2023-02-10T00:21:09;6.72;;;3.50;;
49514;SDS011;35415;47.870;16.058;2023-02-10T00:23:38;3.97;;;1.98;;
49514;SDS011;35415;47.870;16.058;2023-02-10T00:26:07;4.40;;;2.63;;
49514;SDS011;35415;47.870;16.058;2023-02-10T00:28:37;3.60;;;2.00;;
49514;SDS011;35415;47.870;16.058;2023-02-10T00:31:05;2.85;;;1.75;;
49514;SDS011;35415;47.870;16.058;2023-02-10T00:33:32;7.18;;;2.67;;
49514;SDS011;35415;47.870;16.058;2023-02-10T00:36:02;4.68;;;2.15;;
49514;SDS011;35415;47.870;16.058;2023-02-10T00:38:32;5.10;;;2.58;;
49514;SDS011;35415;47.870;16.058;2023-02-10T00:41:01;5.85;;;2.97;;
49514;SDS011;35415;47.870;16.058;2023-02-10T00:43:29;5.28;;;2.65;;
49514;SDS011;35415;47.870;16.058;2023-02-10T00:45:56;4.07;;;2.17;;
49514;SDS011;35415;47.870;16.058;2023-02-10T00:48:23;6.18;;;2.80;;
49514;SDS011;35415;47.870;16.058;2023-02-10T00:50:50;6.53;;;2.83;;
49514;SDS011;35415;47.870;16.058;2023-02-10T00:53:17;7.68;;;2.40;;
49514;SDS011;35415;47.870;16.058;2023-02-10T00:55:46;6.28;;;2.50;;
49514;SDS011;35415;47.870;16.058;2023-02-10T00:58:13;3.88;;;2.00;;
49514;SDS011;35415;47.870;16.058;2023-02-10T01:00:40;6.65;;;3.15;;
49514;SDS011;35415;47.870;16.058;2023-02-10T01:03:07;5.00;;;2.53;;
49514;SDS011;35415;47.870;16.058;2023-02-10T01:05:39;5.80;;;3.05;;
49514;SDS011;35415;47.870;16.058;2023-02-10T01:08:06;4.63;;;2.63;;
49514;SDS011;35415;47.870;16.058;2023-02-10T01:10:34;6.00;;;2.83;;
49514;SDS011;35415;47.870;16.058;2023-02-10T01:13:03;5.55;;;2.22;;
49514;SDS011;35415;47.870;16.058;2023-02-10T01:15:32;5.07;;;1.88;;
49514;SDS011;35415;47.870;16.058;2023-02-10T01:18:00;2.35;;;1.02;;
49514;SDS011;35415;47.870;16.058;2023-02-10T01:20:27;4.18;;;2.05;;
49514;SDS011;35415;47.870;16.058;2023-02-10T01:22:54;4.63;;;2.20;;
49514;SDS011;35415;47.870;16.058;2023-02-10T01:25:21;3.38;;;1.92;;
49514;SDS011;35415;47.870;16.058;2023-02-10T01:27:48;3.05;;;2.00;;
49514;SDS011;35415;47.870;16.058;2023-02-10T01:30:17;5.25;;;2.35;;
49514;SDS011;35415;47.870;16.058;2023-02-10T01:32:44;1.40;;;1.10;;
49514;SDS011;35415;47.870;16.058;2023-02-10T01:35:11;11.43;;;3.17;;
49514;SDS011;35415;47.870;16.058;2023-02-10T01:37:38;3.60;;;1.90;;
49514;SDS011;35415;47.870;16.058;2023-02-10T01:40:07;2.53;;;1.70;;
49514;SDS011;35415;47.870;16.058;2023-02-10T01:42:35;3.95;;;2.13;;
49514;SDS011;35415;47.870;16.058;2023-02-10T01:45:10;1.45;;;1.13;;
49514;SDS011;35415;47.870;16.058;2023-02-10T01:47:42;3.88;;;2.15;;
49514;SDS011;35415;47.870;16.058;2023-02-10T01:50:10;9.98;;;2.33;;
49514;SDS011;35415;47.870;16.058;2023-02-10T01:52:38;4.72;;;2.20;;
49514;SDS011;35415;47.870;16.058;2023-02-10T01:55:09;4.60;;;2.10;;
49514;SDS011;35415;47.870;16.058;2023-02-10T01:57:40;4.72;;;2.20;;
49514;SDS011;35415;47.870;16.058;2023-02-10T02:00:10;7.20;;;2.42;;
49514;SDS011;35415;47.870;16.058;2023-02-10T02:02:38;5.30;;;2.42;;
49514;SDS011;35415;47.870;16.058;2023-02-10T02:05:17;1.25;;;1.05;;
49514;SDS011;35415;47.870;16.058;2023-02-10T02:07:47;2.65;;;1.90;;
49514;SDS011;35415;47.870;16.058;2023-02-10T02:10:14;3.97;;;2.03;;
49514;SDS011;35415;47.870;16.058;2023-02-10T02:12:44;4.30;;;1.65;;
49514;SDS011;35415;47.870;16.058;2023-02-10T02:15:20;4.65;;;1.27;;
49514;SDS011;35415;47.870;16.058;2023-02-10T02:17:57;3.70;;;2.10;;
49514;SDS011;35415;47.870;16.058;2023-02-10T02:20:35;4.05;;;2.40;;
49514;SDS011;35415;47.870;16.058;2023-02-10T02:26:33;5.90;;;2.47;;
49514;SDS011;35415;47.870;16.058;2023-02-10T02:29:29;2.33;;;1.45;;
49514;SDS011;35415;47.870;16.058;2023-02-10T02:32:13;2.90;;;1.30;;
49514;SDS011;35415;47.870;16.058;2023-02-10T02:34:45;2.25;;;1.50;;
49514;SDS011;35415;47.870;16.058;2023-02-10T02:37:17;2.42;;;1.25;;
49514;SDS011;35415;47.870;16.058;2023-02-10T02:39:48;3.72;;;1.90;;
49514;SDS011;35415;47.870;16.058;2023-02-10T02:42:18;6.15;;;2.17;;
49514;SDS011;35415;47.870;16.058;2023-02-10T02:44:48;3.90;;;1.13;;
49514;SDS011;35415;47.870;16.058;2023-02-10T02:47:26;3.75;;;2.03;;
49514;SDS011;35415;47.870;16.058;2023-02-10T02:50:09;3.92;;;1.80;;
49514;SDS011;35415;47.870;16.058;2023-02-10T02:52:50;3.80;;;2.13;;
49514;SDS011;35415;47.870;16.058;2023-02-10T02:55:32;2.10;;;1.58;;
49514;SDS011;35415;47.870;16.058;2023-02-10T02:58:10;5.38;;;2.20;;
49514;SDS011;35415;47.870;16.058;2023-02-10T03:00:43;4.05;;;2.35;;
49514;SDS011;35415;47.870;16.058;2023-02-10T03:03:16;3.40;;;2.40;;
49514;SDS011;35415;47.870;16.058;2023-02-10T03:05:44;1.92;;;1.05;;
49514;SDS011;35415;47.870;16.058;2023-02-10T03:08:11;0.68;;;0.68;;
49514;SDS011;35415;47.870;16.058;2023-02-10T03:10:38;5.53;;;2.70;;
49514;SDS011;35415;47.870;16.058;2023-02-10T03:13:05;4.38;;;1.60;;
49514;SDS011;35415;47.870;16.058;2023-02-10T03:15:32;5.85;;;2.10;;
49514;SDS011;35415;47.870;16.058;2023-02-10T03:18:00;3.75;;;2.08;;
49514;SDS011;35415;47.870;16.058;2023-02-10T03:20:28;4.45;;;2.03;;
49514;SDS011;35415;47.870;16.058;2023-02-10T03:22:55;3.63;;;1.67;;
49514;SDS011;35415;47.870;16.058;2023-02-10T03:25:23;2.78;;;1.73;;
49514;SDS011;35415;47.870;16.058;2023-02-10T03:27:50;3.40;;;1.80;;
49514;SDS011;35415;47.870;16.058;2023-02-10T03:30:17;3.60;;;1.40;;
49514;SDS011;35415;47.870;16.058;2023-02-10T03:32:44;3.92;;;2.25;;
49514;SDS011;35415;47.870;16.058;2023-02-10T03:35:14;7.43;;;2.08;;
49514;SDS011;35415;47.870;16.058;2023-02-10T03:37:42;3.95;;;2.08;;
49514;SDS011;35415;47.870;16.058;2023-02-10T03:40:10;4.60;;;2.08;;
49514;SDS011;35415;47.870;16.058;2023-02-10T03:42:39;5.90;;;1.95;;
49514;SDS011;35415;47.870;16.058;2023-02-10T03:45:07;3.45;;;2.08;;
49514;SDS011;35415;47.870;16.058;2023-02-10T03:47:34;2.38;;;1.52;;
49514;SDS011;35415;47.870;16.058;2023-02-10T03:50:01;2.05;;;1.63;;
49514;SDS011;35415;47.870;16.058;2023-02-10T03:52:28;3.17;;;2.22;;
49514;SDS011;35415;47.870;16.058;2023-02-10T03:54:57;4.85;;;1.60;;
49514;SDS011;35415;47.870;16.058;2023-02-10T03:57:24;2.67;;;1.92;;
49514;SDS011;35415;47.870;16.058;2023-02-10T03:59:51;5.82;;;1.75;;
49514;SDS011;35415;47.870;16.058;2023-02-10T04:02:18;3.22;;;2.25;;
49514;SDS011;35415;47.870;16.058;2023-02-10T04:04:46;5.85;;;2.13;;
49514;SDS011;35415;47.870;16.058;2023-02-10T04:07:13;4.00;;;2.13;;
49514;SDS011;35415;47.870;16.058;2023-02-10T04:09:40;8.25;;;2.45;;
49514;SDS011;35415;47.870;16.058;2023-02-10T04:12:09;2.75;;;1.83;;
49514;SDS011;35415;47.870;16.058;2023-02-10T04:14:35;3.65;;;1.90;;
49514;SDS011;35415;47.870;16.058;2023-02-10T04:17:03;3.40;;;2.30;;
49514;SDS011;35415;47.870;16.058;2023-02-10T04:19:30;4.90;;;2.58;;
49514;SDS011;35415;47.870;16.058;2023-02-10T04:21:56;4.18;;;2.05;;
49514;SDS011;35415;47.870;16.058;2023-02-10T04:24:24;7.72;;;2.17;;
49514;SDS011;35415;47.870;16.058;2023-02-10T04:26:51;3.00;;;1.77;;
49514;SDS011;35415;47.870;16.058;2023-02-10T04:29:20;5.22;;;2.03;;
49514;SDS011;35415;47.870;16.058;2023-02-10T04:31:47;3.40;;;2.00;;
49514;SDS011;35415;47.870;16.058;2023-02-10T04:34:14;5.50;;;2.42;;
49514;SDS011;35415;47.870;16.058;2023-02-10T04:36:42;3.58;;;1.98;;
49514;SDS011;35415;47.870;16.058;2023-02-10T04:39:09;5.45;;;2.63;;
49514;SDS011;35415;47.870;16.058;2023-02-10T04:41:36;3.42;;;2.00;;
49514;SDS011;35415;47.870;16.058;2023-02-10T04:44:03;9.77;;;2.60;;
49514;SDS011;35415;47.870;16.058;2023-02-10T04:46:34;4.85;;;2.38;;
49514;SDS011;35415;47.870;16.058;2023-02-10T04:49:01;5.53;;;2.90;;
49514;SDS011;35415;47.870;16.058;2023-02-10T04:51:28;5.65;;;2.55;;
49514;SDS011;35415;47.870;16.058;2023-02-10T04:53:55;2.85;;;2.00;;
49514;SDS011;35415;47.870;16.058;2023-02-10T04:56:22;7.63;;;2.10;;
49514;SDS011;35415;47.870;16.058;2023-02-10T04:58:49;4.70;;;2.38;;
49514;SDS011;35415;47.870;16.058;2023-02-10T05:01:16;3.05;;;1.95;;
49514;SDS011;35415;47.870;16.058;2023-02-10T05:03:45;25.52;;;2.78;;
49514;SDS011;35415;47.870;16.058;2023-02-10T05:06:13;5.78;;;2.08;;
49514;SDS011;35415;47.870;16.058;2023-02-10T05:08:41;4.72;;;2.50;;
49514;SDS011;35415;47.870;16.058;2023-02-10T05:11:09;4.45;;;2.22;;
49514;SDS011;35415;47.870;16.058;2023-02-10T05:13:37;6.50;;;2.42;;
49514;SDS011;35415;47.870;16.058;2023-02-10T05:16:07;3.33;;;1.77;;
49514;SDS011;35415;47.870;16.058;2023-02-10T05:18:35;5.25;;;2.60;;
49514;SDS011;35415;47.870;16.058;2023-02-10T05:21:06;4.15;;;2.20;;
49514;SDS011;35415;47.870;16.058;2023-02-10T05:23:34;3.80;;;2.10;;
49514;SDS011;35415;47.870;16.058;2023-02-10T05:26:02;3.80;;;2.45;;
49514;SDS011;35415;47.870;16.058;2023-02-10T05:28:30;4.85;;;2.38;;
49514;SDS011;35415;47.870;16.058;2023-02-10T05:30:57;5.30;;;2.20;;
49514;SDS011;35415;47.870;16.058;2023-02-10T05:33:24;4.63;;;2.47;;
49514;SDS011;35415;47.870;16.058;2023-02-10T05:35:51;4.75;;;2.28;;
49514;SDS011;35415;47.870;16.058;2023-02-10T05:38:20;4.10;;;2.30;;
49514;SDS011;35415;47.870;16.058;2023-02-10T05:40:48;4.80;;;2.47;;
49514;SDS011;35415;47.870;16.058;2023-02-10T05:43:15;3.70;;;2.45;;
49514;SDS011;35415;47.870;16.058;2023-02-10T05:45:42;5.13;;;2.80;;
49514;SDS011;35415;47.870;16.058;2023-02-10T05:48:13;3.47;;;2.03;;
49514;SDS011;35415;47.870;16.058;2023-02-10T05:50:41;5.00;;;3.30;;
49514;SDS011;35415;47.870;16.058;2023-02-10T05:53:08;18.23;;;7.55;;
49514;SDS011;35415;47.870;16.058;2023-02-10T05:55:37;16.45;;;8.52;;
49514;SDS011;35415;47.870;16.058;2023-02-10T05:58:04;10.35;;;4.85;;
49514;SDS011;35415;47.870;16.058;2023-02-10T06:00:31;8.75;;;3.90;;
49514;SDS011;35415;47.870;16.058;2023-02-10T06:02:58;12.70;;;5.10;;
49514;SDS011;35415;47.870;16.058;2023-02-10T06:05:26;11.80;;;5.97;;
49514;SDS011;35415;47.870;16.058;2023-02-10T06:07:53;26.08;;;10.30;;
49514;SDS011;35415;47.870;16.058;2023-02-10T06:10:20;16.23;;;7.32;;
49514;SDS011;35415;47.870;16.058;2023-02-10T06:12:49;14.73;;;6.20;;
49514;SDS011;35415;47.870;16.058;2023-02-10T06:15:16;13.85;;;5.55;;
49514;SDS011;35415;47.870;16.058;2023-02-10T06:17:44;32.45;;;10.75;;
49514;SDS011;35415;47.870;16.058;2023-02-10T06:20:11;24.77;;;9.90;;
49514;SDS011;35415;47.870;16.058;2023-02-10T06:22:38;19.73;;;6.60;;
49514;SDS011;35415;47.870;16.058;2023-02-10T06:25:05;9.55;;;4.53;;
49514;SDS011;35415;47.870;16.058;2023-02-10T06:27:32;9.13;;;3.38;;
49514;SDS011;35415;47.870;16.058;2023-02-10T06:30:01;11.20;;;3.97;;
49514;SDS011;35415;47.870;16.058;2023-02-10T06:32:28;7.65;;;4.20;;
49514;SDS011;35415;47.870;16.058;2023-02-10T06:34:55;8.23;;;3.83;;
49514;SDS011;35415;47.870;16.058;2023-02-10T06:37:22;6.28;;;3.72;;
49514;SDS011;35415;47.870;16.058;2023-02-10T06:39:49;11.50;;;4.75;;
49514;SDS011;35415;47.870;16.058;2023-02-10T06:42:17;6.63;;;3.17;;
49514;SDS011;35415;47.870;16.058;2023-02-10T06:44:44;13.82;;;5.35;;
49514;SDS011;35415;47.870;16.058;2023-02-10T06:47:13;10.70;;;4.60;;
49514;SDS011;35415;47.870;16.058;2023-02-10T06:49:40;12.32;;;4.70;;
49514;SDS011;35415;47.870;16.058;2023-02-10T06:52:07;12.95;;;4.88;;
49514;SDS011;35415;47.870;16.058;2023-02-10T06:54:36;10.63;;;5.13;;
49514;SDS011;35415;47.870;16.058;2023-02-10T06:57:03;11.30;;;4.95;;
49514;SDS011;35415;47.870;16.058;2023-02-10T06:59:32;9.63;;;5.85;;
49514;SDS011;35415;47.870;16.058;2023-02-10T07:01:59;12.13;;;4.80;;
49514;SDS011;35415;47.870;16.058;2023-02-10T07:04:30;13.30;;;5.50;;
49514;SDS011;35415;47.870;16.058;2023-02-10T07:06:58;9.88;;;4.63;;
49514;SDS011;35415;47.870;16.058;2023-02-10T07:09:25;14.23;;;5.13;;
49514;SDS011;35415;47.870;16.058;2023-02-10T07:11:57;15.13;;;6.15;;
49514;SDS011;35415;47.870;16.058;2023-02-10T07:14:25;15.43;;;6.03;;
49514;SDS011;35415;47.870;16.058;2023-02-10T07:16:53;15.00;;;6.57;;
49514;SDS011;35415;47.870;16.058;2023-02-10T07:19:20;12.50;;;5.63;;
49514;SDS011;35415;47.870;16.058;2023-02-10T07:21:49;14.88;;;5.85;;
49514;SDS011;35415;47.870;16.058;2023-02-10T07:24:17;12.23;;;5.82;;
49514;SDS011;35415;47.870;16.058;2023-02-10T07:26:44;12.02;;;5.40;;
49514;SDS011;35415;47.870;16.058;2023-02-10T07:29:11;15.18;;;5.95;;
49514;SDS011;35415;47.870;16.058;2023-02-10T07:31:38;16.13;;;5.35;;
49514;SDS011;35415;47.870;16.058;2023-02-10T07:34:06;16.02;;;6.18;;
49514;SDS011;35415;47.870;16.058;2023-02-10T07:36:33;15.05;;;6.30;;
49514;SDS011;35415;47.870;16.058;2023-02-10T07:39:02;13.55;;;5.65;;
49514;SDS011;35415;47.870;16.058;2023-02-10T07:41:29;14.18;;;6.38;;
49514;SDS011;35415;47.870;16.058;2023-02-10T07:43:56;14.13;;;6.95;;
49514;SDS011;35415;47.870;16.058;2023-02-10T07:46:25;16.15;;;6.80;;
49514;SDS011;35415;47.870;16.058;2023-02-10T07:48:52;19.42;;;7.57;;
49514;SDS011;35415;47.870;16.058;2023-02-10T07:51:19;19.27;;;6.32;;
49514;SDS011;35415;47.870;16.058;2023-02-10T07:53:47;15.48;;;6.38;;
49514;SDS011;35415;47.870;16.058;2023-02-10T07:56:15;18.77;;;8.60;;
49514;SDS011;35415;47.870;16.058;2023-02-10T07:58:43;19.15;;;8.43;;
49514;SDS011;35415;47.870;16.058;2023-02-10T08:01:11;19.00;;;8.52;;
49514;SDS011;35415;47.870;16.058;2023-02-10T08:03:38;20.40;;;8.77;;
49514;SDS011;35415;47.870;16.058;2023-02-10T08:06:05;23.45;;;10.05;;
49514;SDS011;35415;47.870;16.058;2023-02-10T08:08:32;24.13;;;8.50;;
49514;SDS011;35415;47.870;16.058;2023-02-10T08:11:02;19.48;;;9.02;;
49514;SDS011;35415;47.870;16.058;2023-02-10T08:13:31;21.35;;;10.73;;
49514;SDS011;35415;47.870;16.058;2023-02-10T08:15:58;22.50;;;9.73;;
49514;SDS011;35415;47.870;16.058;2023-02-10T08:18:25;17.80;;;9.40;;
49514;SDS011;35415;47.870;16.058;2023-02-10T08:20:52;21.83;;;8.82;;
49514;SDS011;35415;47.870;16.058;2023-02-10T08:23:19;17.73;;;8.57;;
49514;SDS011;35415;47.870;16.058;2023-02-10T08:25:47;19.85;;;9.32;;
49514;SDS011;35415;47.870;16.058;2023-02-10T08:28:15;20.30;;;8.57;;
49514;SDS011;35415;47.870;16.058;2023-02-10T08:30:43;22.02;;;8.55;;
49514;SDS011;35415;47.870;16.058;2023-02-10T08:33:11;15.48;;;7.72;;
49514;SDS011;35415;47.870;16.058;2023-02-10T08:35:38;21.83;;;9.30;;
49514;SDS011;35415;47.870;16.058;2023-02-10T08:38:05;20.75;;;8.38;;
49514;SDS011;35415;47.870;16.058;2023-02-10T08:40:34;19.42;;;8.52;;
49514;SDS011;35415;47.870;16.058;2023-02-10T08:43:01;24.27;;;9.05;;
49514;SDS011;35415;47.870;16.058;2023-02-10T08:45:28;20.15;;;9.43;;
49514;SDS011;35415;47.870;16.058;2023-02-10T08:47:57;18.02;;;8.90;;
49514;SDS011;35415;47.870;16.058;2023-02-10T08:50:26;18.75;;;8.93;;
49514;SDS011;35415;47.870;16.058;2023-02-10T08:52:53;12.73;;;6.20;;
49514;SDS011;35415;47.870;16.058;2023-02-10T08:55:20;18.88;;;7.95;;
49514;SDS011;35415;47.870;16.058;2023-02-10T08:57:47;18.27;;;8.80;;
49514;SDS011;35415;47.870;16.058;2023-02-10T09:00:14;18.17;;;8.65;;
49514;SDS011;35415;47.870;16.058;2023-02-10T09:02:42;16.60;;;8.50;;
49514;SDS011;35415;47.870;16.058;2023-02-10T09:05:10;15.50;;;8.05;;
49514;SDS011;35415;47.870;16.058;2023-02-10T09:07:37;14.05;;;7.50;;
49514;SDS011;35415;47.870;16.058;2023-02-10T09:10:04;15.75;;;8.48;;
49514;SDS011;35415;47.870;16.058;2023-02-10T09:12:35;13.20;;;6.82;;
49514;SDS011;35415;47.870;16.058;2023-02-10T09:15:02;19.63;;;8.60;;
49514;SDS011;35415;47.870;16.058;2023-02-10T09:17:29;16.42;;;8.13;;
49514;SDS011;35415;47.870;16.058;2023-02-10T09:19:56;15.60;;;8.20;;
49514;SDS011;35415;47.870;16.058;2023-02-10T09:22:24;14.18;;;7.53;;
49514;SDS011;35415;47.870;16.058;2023-02-10T09:24:52;13.88;;;6.43;;
49514;SDS011;35415;47.870;16.058;2023-02-10T09:27:20;14.05;;;7.00;;
49514;SDS011;35415;47.870;16.058;2023-02-10T09:29:47;17.90;;;8.00;;
49514;SDS011;35415;47.870;16.058;2023-02-10T09:32:14;16.35;;;7.07;;
49514;SDS011;35415;47.870;16.058;2023-02-10T09:34:41;11.18;;;5.95;;
49514;SDS011;35415;47.870;16.058;2023-02-10T09:37:10;12.73;;;6.90;;
49514;SDS011;35415;47.870;16.058;2023-02-10T09:39:38;16.75;;;8.75;;
49514;SDS011;35415;47.870;16.058;2023-02-10T09:42:08;13.13;;;7.18;;
49514;SDS011;35415;47.870;16.058;2023-02-10T09:44:41;13.18;;;6.40;;
49514;SDS011;35415;47.870;16.058;2023-02-10T09:47:24;18.33;;;7.57;;
49514;SDS011;35415;47.870;16.058;2023-02-10T09:50:03;16.55;;;7.72;;
49514;SDS011;35415;47.870;16.058;2023-02-10T09:52:42;16.63;;;7.10;;
49514;SDS011;35415;47.870;16.058;2023-02-10T09:55:23;15.35;;;7.53;;
49514;SDS011;35415;47.870;16.058;2023-02-10T09:57:56;10.82;;;5.47;;
49514;SDS011;35415;47.870;16.058;2023-02-10T10:00:30;10.90;;;6.43;;
49514;SDS011;35415;47.870;16.058;2023-02-10T10:05:38;8.85;;;5.80;;
49514;SDS011;35415;47.870;16.058;2023-02-10T10:08:14;17.20;;;7.47;;
49514;SDS011;35415;47.870;16.058;2023-02-10T10:10:49;12.63;;;5.93;;
49514;SDS011;35415;47.870;16.058;2023-02-10T10:13:19;14.48;;;7.10;;
49514;SDS011;35415;47.870;16.058;2023-02-10T10:16:00;12.50;;;6.32;;
49514;SDS011;35415;47.870;16.058;2023-02-10T10:18:41;13.45;;;7.40;;
49514;SDS011;35415;47.870;16.058;2023-02-10T10:21:15;13.73;;;6.55;;
49514;SDS011;35415;47.870;16.058;2023-02-10T10:23:57;10.85;;;6.18;;
49514;SDS011;35415;47.870;16.058;2023-02-10T10:26:40;11.38;;;6.20;;
49514;SDS011;35415;47.870;16.058;2023-02-10T10:29:19;11.90;;;6.50;;
49514;SDS011;35415;47.870;16.058;2023-02-10T10:31:53;12.85;;;6.75;;
49514;SDS011;35415;47.870;16.058;2023-02-10T10:34:25;13.05;;;6.95;;
49514;SDS011;35415;47.870;16.058;2023-02-10T10:36:58;13.02;;;6.22;;
49514;SDS011;35415;47.870;16.058;2023-02-10T10:39:28;12.80;;;6.15;;
49514;SDS011;35415;47.870;16.058;2023-02-10T10:42:06;14.18;;;5.95;;
49514;SDS011;35415;47.870;16.058;2023-02-10T10:44:43;10.88;;;6.60;;
49514;SDS011;35415;47.870;16.058;2023-02-10T10:47:13;11.18;;;5.55;;
49514;SDS011;35415;47.870;16.058;2023-02-10T10:49:45;11.60;;;6.53;;
49514;SDS011;35415;47.870;16.058;2023-02-10T10:52:19;17.90;;;6.53;;
49514;SDS011;35415;47.870;16.058;2023-02-10T10:54:54;12.93;;;6.65;;
49514;SDS011;35415;47.870;16.058;2023-02-10T10:57:23;11.82;;;6.78;;
49514;SDS011;35415;47.870;16.058;2023-02-10T10:59:53;11.82;;;6.07;;
49514;SDS011;35415;47.870;16.058;2023-02-10T11:02:24;7.88;;;4.55;;
49514;SDS011;35415;47.870;16.058;2023-02-10T11:05:01;10.73;;;6.05;;
49514;SDS011;35415;47.870;16.058;2023-02-10T11:07:31;8.07;;;4.80;;
49514;SDS011;35415;47.870;16.058;2023-02-10T11:09:59;12.93;;;6.50;;
49514;SDS011;35415;47.870;16.058;2023-02-10T11:12:30;13.70;;;5.63;;
49514;SDS011;35415;47.870;16.058;2023-02-10T11:17:29;11.15;;;5.85;;
49514;SDS011;35415;47.870;16.058;2023-02-10T11:20:02;10.32;;;5.65;;
49514;SDS011;35415;47.870;16.058;2023-02-10T11:22:34;10.15;;;5.40;;
49514;SDS011;35415;47.870;16.058;2023-02-10T11:25:03;8.60;;;4.80;;
49514;SDS011;35415;47.870;16.058;2023-02-10T11:27:51;13.95;;;5.80;;
49514;SDS011;35415;47.870;16.058;2023-02-10T11:30:23;11.93;;;5.47;;
49514;SDS011;35415;47.870;16.058;2023-02-10T11:32:54;14.68;;;5.80;;
49514;SDS011;35415;47.870;16.058;2023-02-10T11:35:22;9.13;;;5.32;;
49514;SDS011;35415;47.870;16.058;2023-02-10T11:37:53;10.95;;;5.53;;
49514;SDS011;35415;47.870;16.058;2023-02-10T11:40:27;10.93;;;5.32;;
49514;SDS011;35415;47.870;16.058;2023-02-10T11:42:59;12.55;;;5.70;;
49514;SDS011;35415;47.870;16.058;2023-02-10T11:45:28;11.80;;;5.32;;
49514;SDS011;35415;47.870;16.058;2023-02-10T11:48:00;10.50;;;5.30;;
49514;SDS011;35415;47.870;16.058;2023-02-10T11:50:29;8.25;;;5.03;;
49514;SDS011;35415;47.870;16.058;2023-02-10T11:52:58;10.20;;;5.47;;
49514;SDS011;35415;47.870;16.058;2023-02-10T11:55:27;8.07;;;5.05;;
49514;SDS011;35415;47.870;16.058;2023-02-10T11:58:11;9.80;;;5.07;;
49514;SDS011;35415;47.870;16.058;2023-02-10T12:01:14;12.70;;;5.22;;
49514;SDS011;35415;47.870;16.058;2023-02-10T12:03:51;11.93;;;6.38;;
49514;SDS011;35415;47.870;16.058;2023-02-10T12:06:30;18.27;;;4.88;;
49514;SDS011;35415;47.870;16.058;2023-02-10T12:09:04;9.60;;;5.18;;
49514;SDS011;35415;47.870;16.058;2023-02-10T12:11:41;10.48;;;5.20;;
49514;SDS011;35415;47.870;16.058;2023-02-10T12:14:24;9.45;;;4.60;;
49514;SDS011;35415;47.870;16.058;2023-02-10T12:17:00;8.52;;;5.07;;
49514;SDS011;35415;47.870;16.058;2023-02-10T12:19:45;7.82;;;4.70;;
49514;SDS011;35415;47.870;16.058;2023-02-10T12:22:25;8.15;;;4.43;;
49514;SDS011;35415;47.870;16.058;2023-02-10T12:25:06;12.20;;;4.93;;
49514;SDS011;35415;47.870;16.058;2023-02-10T12:30:26;9.25;;;4.80;;
49514;SDS011;35415;47.870;16.058;2023-02-10T12:33:03;8.90;;;5.28;;
49514;SDS011;35415;47.870;16.058;2023-02-10T12:35:52;8.32;;;4.70;;
49514;SDS011;35415;47.870;16.058;2023-02-10T12:38:35;11.75;;;5.30;;
49514;SDS011;35415;47.870;16.058;2023-02-10T12:41:21;9.15;;;4.47;;
49514;SDS011;35415;47.870;16.058;2023-02-10T12:43:58;9.32;;;4.90;;
49514;SDS011;35415;47.870;16.058;2023-02-10T12:46:36;7.95;;;4.47;;
49514;SDS011;35415;47.870;16.058;2023-02-10T12:49:14;9.18;;;4.82;;
49514;SDS011;35415;47.870;16.058;2023-02-10T12:51:59;8.32;;;4.40;;
49514;SDS011;35415;47.870;16.058;2023-02-10T12:54:45;10.45;;;4.30;;
49514;SDS011;35415;47.870;16.058;2023-02-10T12:57:17;8.33;;;4.53;;
49514;SDS011;35415;47.870;16.058;2023-02-10T12:59:51;7.70;;;4.10;;
49514;SDS011;35415;47.870;16.058;2023-02-10T13:02:27;12.15;;;5.38;;
49514;SDS011;35415;47.870;16.058;2023-02-10T13:05:02;9.38;;;4.40;;
49514;SDS011;35415;47.870;16.058;2023-02-10T13:07:37;10.35;;;4.45;;
49514;SDS011;35415;47.870;16.058;2023-02-10T13:10:22;12.88;;;4.70;;
49514;SDS011;35415;47.870;16.058;2023-02-10T13:13:00;11.68;;;4.32;;
49514;SDS011;35415;47.870;16.058;2023-02-10T13:15:35;7.22;;;4.45;;
49514;SDS011;35415;47.870;16.058;2023-02-10T13:18:14;8.93;;;4.10;;
49514;SDS011;35415;47.870;16.058;2023-02-10T13:20:48;8.68;;;4.63;;
49514;SDS011;35415;47.870;16.058;2023-02-10T13:23:24;6.63;;;2.92;;
49514;SDS011;35415;47.870;16.058;2023-02-10T13:26:00;5.93;;;3.67;;
49514;SDS011;35415;47.870;16.058;2023-02-10T13:28:47;8.93;;;4.78;;
49514;SDS011;35415;47.870;16.058;2023-02-10T13:31:27;7.80;;;3.75;;
49514;SDS011;35415;47.870;16.058;2023-02-10T13:34:18;5.85;;;3.65;;
49514;SDS011;35415;47.870;16.058;2023-02-10T13:36:49;6.68;;;3.80;;
49514;SDS011;35415;47.870;16.058;2023-02-10T13:39:22;7.13;;;3.85;;
49514;SDS011;35415;47.870;16.058;2023-02-10T13:42:03;6.07;;;3.72;;
49514;SDS011;35415;47.870;16.058;2023-02-10T13:44:36;6.75;;;3.92;;
49514;SDS011;35415;47.870;16.058;2023-02-10T13:47:27;8.80;;;3.78;;
49514;SDS011;35415;47.870;16.058;2023-02-10T13:50:00;15.27;;;4.38;;
49514;SDS011;35415;47.870;16.058;2023-02-10T13:55:01;6.10;;;3.63;;
49514;SDS011;35415;47.870;16.058;2023-02-10T13:57:33;6.25;;;3.72;;
49514;SDS011;35415;47.870;16.058;2023-02-10T14:00:14;7.25;;;4.13;;
49514;SDS011;35415;47.870;16.058;2023-02-10T14:02:57;6.90;;;3.53;;
49514;SDS011;35415;47.870;16.058;2023-02-10T14:05:31;7.03;;;3.80;;
49514;SDS011;35415;47.870;16.058;2023-02-10T14:08:11;5.10;;;3.10;;
49514;SDS011;35415;47.870;16.058;2023-02-10T14:10:41;5.07;;;2.83;;
49514;SDS011;35415;47.870;16.058;2023-02-10T14:13:20;6.22;;;3.00;;
49514;SDS011;35415;47.870;16.058;2023-02-10T14:15:56;5.70;;;3.30;;
49514;SDS011;35415;47.870;16.058;2023-02-10T14:18:25;6.90;;;2.97;;
49514;SDS011;35415;47.870;16.058;2023-02-10T14:20:57;6.15;;;3.00;;
49514;SDS011;35415;47.870;16.058;2023-02-10T14:23:26;6.18;;;2.53;;
49514;SDS011;35415;47.870;16.058;2023-02-10T14:25:57;5.70;;;3.38;;
49514;SDS011;35415;47.870;16.058;2023-02-10T14:28:27;5.28;;;2.83;;
49514;SDS011;35415;47.870;16.058;2023-02-10T14:30:59;4.30;;;2.25;;
49514;SDS011;35415;47.870;16.058;2023-02-10T14:33:32;5.88;;;2.85;;
49514;SDS011;35415;47.870;16.058;2023-02-10T14:36:03;5.88;;;3.17;;
49514;SDS011;35415;47.870;16.058;2023-02-10T14:38:34;4.82;;;3.10;;
49514;SDS011;35415;47.870;16.058;2023-02-10T14:41:01;5.80;;;3.30;;
49514;SDS011;35415;47.870;16.058;2023-02-10T14:43:30;7.80;;;3.10;;
49514;SDS011;35415;47.870;16.058;2023-02-10T14:46:02;8.73;;;3.40;;
49514;SDS011;35415;47.870;16.058;2023-02-10T14:48:29;6.30;;;3.35;;
49514;SDS011;35415;47.870;16.058;2023-02-10T14:51:04;7.38;;;3.60;;
49514;SDS011;35415;47.870;16.058;2023-02-10T14:53:35;5.35;;;3.22;;
49514;SDS011;35415;47.870;16.058;2023-02-10T14:56:12;5.28;;;3.22;;
49514;SDS011;35415;47.870;16.058;2023-02-10T14:58:46;4.75;;;3.10;;
49514;SDS011;35415;47.870;16.058;2023-02-10T15:01:15;5.93;;;3.15;;
49514;SDS011;35415;47.870;16.058;2023-02-10T15:03:47;7.53;;;3.55;;